createdAt,value
2022-12-04T00:02:16.090Z,11.47
2022-12-04T00:04:43.663Z,11.10
2022-12-04T00:07:12.228Z,11.30
2022-12-04T00:09:39.763Z,11.13
2022-12-04T00:12:08.067Z,12.30
2022-12-04T00:14:49.031Z,11.23
2022-12-04T00:17:03.175Z,11.63
2022-12-04T00:19:30.710Z,12.37
2022-12-04T00:21:59.071Z,12.20
2022-12-04T00:24:26.595Z,11.40
2022-12-04T00:26:54.130Z,11.87
2022-12-04T00:29:21.694Z,11.90
2022-12-04T00:31:49.333Z,11.07
2022-12-04T00:34:17.534Z,11.40
2022-12-04T00:36:45.088Z,11.90
2022-12-04T00:39:12.612Z,11.97
2022-12-04T00:41:40.905Z,11.30
2022-12-04T00:44:09.247Z,11.70
2022-12-04T00:46:36.771Z,11.03
2022-12-04T00:49:04.326Z,11.17
2022-12-04T00:51:31.983Z,11.37
2022-12-04T00:53:59.506Z,12.63
2022-12-04T00:56:27.818Z,11.43
2022-12-04T00:58:55.410Z,11.73
2022-12-04T01:01:23.006Z,11.60
2022-12-04T01:03:50.450Z,11.43
2022-12-04T01:06:26.432Z,11.83
2022-12-04T01:08:53.967Z,12.80
2022-12-04T01:11:21.497Z,12.47
2022-12-04T01:13:49.935Z,11.90
2022-12-04T01:16:20.690Z,12.70
2022-12-04T01:18:48.152Z,11.23
2022-12-04T01:21:15.720Z,11.20
2022-12-04T01:23:43.252Z,11.23
2022-12-04T01:26:10.779Z,12.00
2022-12-04T01:28:40.240Z,11.77
2022-12-04T01:31:11.028Z,10.57
2022-12-04T01:33:38.481Z,11.50
2022-12-04T01:36:07.128Z,11.67
2022-12-04T01:38:34.654Z,10.30
2022-12-04T01:41:02.189Z,11.13
2022-12-04T01:43:30.541Z,10.97
2022-12-04T01:45:58.099Z,10.93
2022-12-04T01:48:28.080Z,10.63
2022-12-04T01:50:55.665Z,14.45
2022-12-04T01:53:23.211Z,13.07
2022-12-04T01:55:50.744Z,15.63
2022-12-04T01:58:18.604Z,13.73
2022-12-04T02:00:50.977Z,11.63
2022-12-04T02:03:14.485Z,12.53
2022-12-04T02:05:43.019Z,11.43
2022-12-04T02:08:10.591Z,10.53
2022-12-04T02:10:51.174Z,11.07
2022-12-04T02:13:21.576Z,10.53
2022-12-04T02:15:55.154Z,11.73
2022-12-04T02:18:35.429Z,10.50
2022-12-04T02:21:03.301Z,9.90
2022-12-04T02:23:52.083Z,9.90
2022-12-04T02:26:23.545Z,10.80
2022-12-04T02:28:56.702Z,10.73
2022-12-04T02:31:24.287Z,10.63
2022-12-04T02:33:55.559Z,10.53
2022-12-04T02:36:23.087Z,11.03
2022-12-04T02:38:59.267Z,11.37
2022-12-04T02:41:26.861Z,14.10
2022-12-04T02:43:54.397Z,13.40
2022-12-04T02:46:30.850Z,11.23
2022-12-04T02:48:58.336Z,13.30
2022-12-04T02:51:26.641Z,11.00
2022-12-04T02:53:54.175Z,11.10
2022-12-04T02:56:25.243Z,10.13
2022-12-04T02:58:52.789Z,10.90
2022-12-04T03:01:20.369Z,9.73
2022-12-04T03:03:51.915Z,9.77
2022-12-04T03:06:19.449Z,10.13
2022-12-04T03:08:47.761Z,10.73
2022-12-04T03:11:15.731Z,10.00
2022-12-04T03:13:48.888Z,10.77
2022-12-04T03:16:17.239Z,10.10
2022-12-04T03:18:47.815Z,10.13
2022-12-04T03:21:15.340Z,9.97
2022-12-04T03:23:49.396Z,10.83
2022-12-04T03:26:16.957Z,11.00
2022-12-04T03:29:08.901Z,10.87
2022-12-04T03:31:39.400Z,10.33
2022-12-04T03:34:06.934Z,11.20
2022-12-04T03:36:35.227Z,10.33
2022-12-04T03:39:08.986Z,10.73
2022-12-04T03:41:55.099Z,10.07
2022-12-04T03:44:28.570Z,9.97
2022-12-04T03:47:05.039Z,10.80
2022-12-04T03:49:44.436Z,10.60
2022-12-04T03:52:17.505Z,14.52
2022-12-04T03:54:48.593Z,10.60
2022-12-04T03:57:18.955Z,10.70
2022-12-04T03:59:55.279Z,11.27
2022-12-04T04:02:16.525Z,10.80
2022-12-04T04:04:44.062Z,13.30
2022-12-04T04:07:11.575Z,11.50
2022-12-04T04:09:39.098Z,10.03
2022-12-04T04:12:09.972Z,10.63
2022-12-04T04:14:58.537Z,9.23
2022-12-04T04:17:44.092Z,11.03
2022-12-04T04:20:33.534Z,10.67
2022-12-04T04:23:19.512Z,10.40
2022-12-04T04:25:47.035Z,11.03
2022-12-04T04:28:29.290Z,9.37
2022-12-04T04:30:56.863Z,9.37
2022-12-04T04:33:24.330Z,11.65
2022-12-04T04:35:55.890Z,10.10
2022-12-04T04:38:26.084Z,10.10
2022-12-04T04:41:02.913Z,9.53
2022-12-04T04:43:33.339Z,10.23
2022-12-04T04:46:06.661Z,9.70
2022-12-04T04:48:40.071Z,9.90
2022-12-04T04:51:07.605Z,9.70
2022-12-04T04:53:37.601Z,10.70
2022-12-04T04:56:05.175Z,10.53
2022-12-04T04:58:32.713Z,10.47
2022-12-04T05:01:02.932Z,9.60
2022-12-04T05:03:30.488Z,10.13
2022-12-04T05:05:58.011Z,10.57
2022-12-04T05:08:25.559Z,13.80
2022-12-04T05:10:53.139Z,12.20
2022-12-04T05:13:20.683Z,10.13
2022-12-04T05:16:03.669Z,10.57
2022-12-04T05:18:31.143Z,10.10
2022-12-04T05:20:58.671Z,10.60
2022-12-04T05:23:26.289Z,9.83
2022-12-04T05:25:53.779Z,9.87
2022-12-04T05:28:21.302Z,10.53
2022-12-04T05:30:49.270Z,10.17
2022-12-04T05:33:16.770Z,10.53
2022-12-04T05:35:44.291Z,10.70
2022-12-04T05:38:12.625Z,10.30
2022-12-04T05:40:40.148Z,10.27
2022-12-04T05:43:07.673Z,10.67
2022-12-04T05:45:35.237Z,10.80
2022-12-04T05:48:02.764Z,13.13
2022-12-04T05:50:30.298Z,11.50
2022-12-04T05:52:58.057Z,10.40
2022-12-04T05:55:25.544Z,10.60
2022-12-04T05:57:53.068Z,10.27
2022-12-04T06:00:21.036Z,10.70
2022-12-04T06:02:48.615Z,10.13
2022-12-04T06:05:16.086Z,11.40
2022-12-04T06:07:43.677Z,9.57
2022-12-04T06:10:11.166Z,10.23
2022-12-04T06:12:38.691Z,11.83
2022-12-04T06:15:06.398Z,9.50
2022-12-04T06:17:33.938Z,13.57
2022-12-04T06:20:06.504Z,13.97
2022-12-04T06:22:29.813Z,13.95
2022-12-04T06:24:57.349Z,11.27
2022-12-04T06:27:27.682Z,10.90
2022-12-04T06:29:52.507Z,11.20
2022-12-04T06:32:22.080Z,10.60
2022-12-04T06:34:47.570Z,12.75
2022-12-04T06:37:15.912Z,10.87
2022-12-04T06:39:43.442Z,9.93
2022-12-04T06:42:10.958Z,10.23
2022-12-04T06:44:39.291Z,9.20
2022-12-04T06:47:06.854Z,9.63
2022-12-04T06:49:34.363Z,10.03
2022-12-04T06:52:02.702Z,9.73
2022-12-04T06:54:30.236Z,10.40
2022-12-04T06:56:57.762Z,12.80
2022-12-04T06:59:25.640Z,9.97
2022-12-04T07:01:53.201Z,9.73
2022-12-04T07:04:20.806Z,13.38
2022-12-04T07:06:48.265Z,10.10
2022-12-04T07:09:15.794Z,10.53
2022-12-04T07:11:43.306Z,10.27
2022-12-04T07:14:12.635Z,9.27
2022-12-04T07:16:41.450Z,9.93
2022-12-04T07:19:07.721Z,11.07
2022-12-04T07:21:36.044Z,9.90
2022-12-04T07:24:03.580Z,9.63
2022-12-04T07:26:31.114Z,9.87
2022-12-04T07:28:59.751Z,10.17
2022-12-04T07:31:27.255Z,10.60
2022-12-04T07:33:54.772Z,10.37
2022-12-04T07:36:22.391Z,10.80
2022-12-04T07:38:49.915Z,10.37
2022-12-04T07:41:17.439Z,10.20
2022-12-04T07:43:45.017Z,14.38
2022-12-04T07:46:12.600Z,11.20
2022-12-04T07:48:40.091Z,11.53
2022-12-04T07:51:08.418Z,10.83
2022-12-04T07:53:35.953Z,11.30
2022-12-04T07:56:03.470Z,10.03
2022-12-04T07:58:31.811Z,10.20
2022-12-04T08:01:08.065Z,10.30
2022-12-04T08:03:35.458Z,9.87
2022-12-04T08:06:04.064Z,10.60
2022-12-04T08:08:31.590Z,10.97
2022-12-04T08:10:59.122Z,9.70
2022-12-04T08:13:26.974Z,10.73
2022-12-04T08:15:54.489Z,10.77
2022-12-04T08:18:22.802Z,10.77
2022-12-04T08:20:50.405Z,10.47
2022-12-04T08:23:17.929Z,10.70
2022-12-04T08:25:45.455Z,13.75
2022-12-04T08:28:13.798Z,12.67
2022-12-04T08:30:41.375Z,12.33
2022-12-04T08:33:08.867Z,14.77
2022-12-04T08:35:36.445Z,14.70
2022-12-04T08:38:03.974Z,12.07
2022-12-04T08:40:31.491Z,10.63
2022-12-04T08:42:59.084Z,10.97
2022-12-04T08:45:27.368Z,13.95
2022-12-04T08:47:54.893Z,12.47
2022-12-04T08:50:22.466Z,11.63
2022-12-04T08:52:50.759Z,10.70
2022-12-04T08:55:18.285Z,11.17
2022-12-04T08:57:46.104Z,10.10
2022-12-04T09:00:13.629Z,10.70
2022-12-04T09:02:41.932Z,11.27
2022-12-04T09:05:09.497Z,11.20
2022-12-04T09:07:37.092Z,11.33
2022-12-04T09:10:05.465Z,11.43
2022-12-04T09:12:33.035Z,11.77
2022-12-04T09:15:00.590Z,13.68
2022-12-04T09:17:28.125Z,15.43
2022-12-04T09:20:00.731Z,12.47
2022-12-04T09:22:23.234Z,12.20
2022-12-04T09:24:50.758Z,12.70
2022-12-04T09:27:18.668Z,12.10
2022-12-04T09:29:46.212Z,11.80
2022-12-04T09:32:13.737Z,11.40
2022-12-04T09:34:44.362Z,11.53
2022-12-04T09:37:10.529Z,11.90
2022-12-04T09:39:38.071Z,11.10
2022-12-04T09:42:30.352Z,11.10
2022-12-04T09:45:06.395Z,11.60
2022-12-04T09:47:42.171Z,10.83
2022-12-04T09:50:21.578Z,10.57
2022-12-04T09:53:04.237Z,10.87
2022-12-04T09:55:40.909Z,11.73
2022-12-04T09:58:08.465Z,13.00
2022-12-04T10:00:36.029Z,10.50
2022-12-04T10:03:06.879Z,10.80
2022-12-04T10:05:42.826Z,11.40
2022-12-04T10:08:10.385Z,12.23
2022-12-04T10:10:40.995Z,14.38
2022-12-04T10:13:36.564Z,12.03
2022-12-04T10:16:12.618Z,11.37
2022-12-04T10:18:42.718Z,11.03
2022-12-04T10:21:16.850Z,13.90
2022-12-04T10:23:59.360Z,11.27
2022-12-04T10:26:26.905Z,12.53
2022-12-04T10:28:55.747Z,11.80
2022-12-04T10:31:22.901Z,10.13
2022-12-04T10:33:54.206Z,10.37
2022-12-04T10:36:21.731Z,9.67
2022-12-04T10:38:51.726Z,10.10
2022-12-04T10:41:24.992Z,10.87
2022-12-04T10:43:52.527Z,10.70
2022-12-04T10:46:26.058Z,9.43
2022-12-04T10:48:53.543Z,10.77
2022-12-04T10:51:21.071Z,10.87
2022-12-04T10:53:51.356Z,9.90
2022-12-04T10:56:19.655Z,10.07
2022-12-04T10:58:58.767Z,10.80
2022-12-04T11:01:27.162Z,10.60
2022-12-04T11:04:00.928Z,9.47
2022-12-04T11:06:28.513Z,10.27
2022-12-04T11:08:56.813Z,9.50
2022-12-04T11:11:24.407Z,10.53
2022-12-04T11:13:52.847Z,10.50
2022-12-04T11:16:23.372Z,10.07
2022-12-04T11:18:50.843Z,11.43
2022-12-04T11:21:18.404Z,12.07
2022-12-04T11:23:45.949Z,11.87
2022-12-04T11:26:13.484Z,11.87
2022-12-04T11:28:42.862Z,11.33
2022-12-04T11:31:09.669Z,10.93
2022-12-04T11:33:49.982Z,10.77
2022-12-04T11:36:27.060Z,11.13
2022-12-04T11:38:55.399Z,10.73
2022-12-04T11:41:25.434Z,10.27
2022-12-04T11:43:56.711Z,14.95
2022-12-04T11:46:20.578Z,14.20
2022-12-04T11:48:48.078Z,12.43
2022-12-04T11:51:33.484Z,11.37
2022-12-04T11:54:03.804Z,11.40
2022-12-04T11:56:34.117Z,11.23
2022-12-04T11:59:13.682Z,13.80
2022-12-04T12:02:15.100Z,15.43
2022-12-04T12:04:42.614Z,25.83
2022-12-04T12:07:19.659Z,21.43
2022-12-04T12:09:57.339Z,11.13
2022-12-04T12:12:42.908Z,12.10
2022-12-04T12:15:19.472Z,12.70
2022-12-04T12:17:52.844Z,18.77
2022-12-04T12:20:42.346Z,10.37
2022-12-04T12:23:18.604Z,10.33
2022-12-04T12:25:57.936Z,9.60
2022-12-04T12:28:34.194Z,9.73
2022-12-04T12:31:20.445Z,8.53
2022-12-04T12:33:50.404Z,9.23
2022-12-04T12:36:17.939Z,9.53
2022-12-04T12:38:52.039Z,9.23
2022-12-04T12:41:22.262Z,9.37
2022-12-04T12:43:49.797Z,9.20
2022-12-04T12:46:23.181Z,9.87
2022-12-04T12:49:11.530Z,11.07
2022-12-04T12:51:48.182Z,9.40
2022-12-04T12:54:33.558Z,8.53
2022-12-04T12:57:01.427Z,11.57
2022-12-04T12:59:28.968Z,8.70
2022-12-04T13:02:09.352Z,10.50
2022-12-04T13:04:39.668Z,9.13
2022-12-04T13:07:20.416Z,11.82
2022-12-04T13:09:56.913Z,9.63
2022-12-04T13:12:24.180Z,9.07
2022-12-04T13:14:51.754Z,10.17
2022-12-04T13:17:19.279Z,8.60
2022-12-04T13:19:49.521Z,11.20
2022-12-04T13:22:38.392Z,9.53
2022-12-04T13:25:11.461Z,10.03
2022-12-04T13:27:50.929Z,10.73
2022-12-04T13:30:20.905Z,9.20
2022-12-04T13:32:48.439Z,8.37
2022-12-04T13:35:31.179Z,9.03
2022-12-04T13:38:01.318Z,10.20
2022-12-04T13:40:34.487Z,8.70
2022-12-04T13:43:17.904Z,9.77
2022-12-04T13:45:45.506Z,8.87
2022-12-04T13:48:13.742Z,10.20
2022-12-04T13:50:41.611Z,10.00
2022-12-04T13:53:09.147Z,9.30
2022-12-04T13:55:37.439Z,9.63
2022-12-04T13:58:11.066Z,9.40
2022-12-04T14:00:38.585Z,11.30
2022-12-04T14:03:06.889Z,9.80
2022-12-04T14:05:40.556Z,11.40
2022-12-04T14:08:08.898Z,10.30
2022-12-04T14:10:36.403Z,11.73
2022-12-04T14:13:12.794Z,10.37
2022-12-04T14:15:40.356Z,13.40
2022-12-04T14:18:13.580Z,9.87
2022-12-04T14:20:41.163Z,9.20
2022-12-04T14:23:18.573Z,16.05
2022-12-04T14:25:46.147Z,11.23
2022-12-04T14:28:13.682Z,10.27
2022-12-04T14:30:42.037Z,9.53
2022-12-04T14:33:18.164Z,9.37
2022-12-04T14:35:48.644Z,9.57
2022-12-04T14:38:19.545Z,10.93
2022-12-04T14:40:49.788Z,11.17
2022-12-04T14:43:17.323Z,10.40
2022-12-04T14:45:44.891Z,11.33
2022-12-04T14:48:18.260Z,15.00
2022-12-04T14:50:54.735Z,13.10
2022-12-04T14:53:44.159Z,11.87
2022-12-04T14:56:30.740Z,13.00
2022-12-04T14:58:58.310Z,14.27
2022-12-04T15:01:30.124Z,13.50
2022-12-04T15:03:56.780Z,14.90
2022-12-04T15:06:27.127Z,12.87
2022-12-04T15:09:15.466Z,12.80
2022-12-04T15:12:07.039Z,11.47
2022-12-04T15:14:49.311Z,11.83
2022-12-04T15:17:18.539Z,12.77
2022-12-04T15:19:46.106Z,12.73
2022-12-04T15:22:23.287Z,12.30
2022-12-04T15:24:50.812Z,12.33
2022-12-04T15:27:19.105Z,12.53
2022-12-04T15:29:46.669Z,12.50
2022-12-04T15:32:14.195Z,12.07
2022-12-04T15:34:44.653Z,13.17
2022-12-04T15:37:22.585Z,11.77
2022-12-04T15:39:52.482Z,16.10
2022-12-04T15:42:17.633Z,12.90
2022-12-04T15:45:02.954Z,14.10
2022-12-04T15:47:30.477Z,17.73
2022-12-04T15:50:16.171Z,19.48
2022-12-04T15:52:50.446Z,17.80
2022-12-04T15:55:17.995Z,13.10
2022-12-04T15:57:45.555Z,16.12
2022-12-04T16:00:22.300Z,14.57
2022-12-04T16:02:50.166Z,12.43
2022-12-04T16:05:20.604Z,12.30
2022-12-04T16:07:51.043Z,12.27
2022-12-04T16:10:31.360Z,12.20
2022-12-04T16:12:59.653Z,11.60
2022-12-04T16:15:27.178Z,12.13
2022-12-04T16:17:55.099Z,11.03
2022-12-04T16:20:22.631Z,12.70
2022-12-04T16:22:50.155Z,12.07
2022-12-04T16:25:17.721Z,11.37
2022-12-04T16:27:45.246Z,15.48
2022-12-04T16:30:12.818Z,13.10
2022-12-04T16:32:40.363Z,11.40
2022-12-04T16:35:08.036Z,11.30
2022-12-04T16:37:35.560Z,10.87
2022-12-04T16:40:03.125Z,11.13
2022-12-04T16:42:30.650Z,10.93
2022-12-04T16:44:59.153Z,12.30
2022-12-04T16:47:26.507Z,15.20
2022-12-04T16:49:54.044Z,12.80
2022-12-04T16:52:22.334Z,12.63
2022-12-04T16:54:49.910Z,15.57
2022-12-04T16:57:17.444Z,13.67
2022-12-04T16:59:45.757Z,12.03
2022-12-04T17:02:16.491Z,11.67
2022-12-04T17:04:43.996Z,11.97
2022-12-04T17:07:11.532Z,13.13
2022-12-04T17:09:39.124Z,11.67
2022-12-04T17:12:06.613Z,12.37
2022-12-04T17:14:34.135Z,11.10
2022-12-04T17:17:02.497Z,13.23
2022-12-04T17:19:30.041Z,12.00
2022-12-04T17:21:57.625Z,11.33
2022-12-04T17:24:25.199Z,12.20
2022-12-04T17:26:53.502Z,16.65
2022-12-04T17:29:21.031Z,12.77
2022-12-04T17:31:49.397Z,12.33
2022-12-04T17:34:16.874Z,12.27
2022-12-04T17:36:45.211Z,12.37
2022-12-04T17:39:12.752Z,12.07
2022-12-04T17:41:40.287Z,12.43
2022-12-04T17:44:07.821Z,12.13
2022-12-04T17:46:36.213Z,11.73
2022-12-04T17:49:06.990Z,12.83
2022-12-04T17:51:31.212Z,11.97
2022-12-04T17:53:59.822Z,12.93
2022-12-04T17:56:27.367Z,12.40
2022-12-04T17:58:55.659Z,12.60
2022-12-04T18:01:23.651Z,12.23
2022-12-04T18:03:53.751Z,11.47
2022-12-04T18:06:24.357Z,12.50
2022-12-04T18:08:52.700Z,13.17
2022-12-04T18:11:20.245Z,11.77
2022-12-04T18:13:47.760Z,15.68
2022-12-04T18:16:16.244Z,14.00
2022-12-04T18:18:43.636Z,13.33
2022-12-04T18:21:11.171Z,14.75
2022-12-04T18:23:38.735Z,12.13
2022-12-04T18:26:06.273Z,12.40
2022-12-04T18:28:34.563Z,12.37
2022-12-04T18:31:03.044Z,13.27
2022-12-04T18:33:30.578Z,11.17
2022-12-04T18:35:58.862Z,13.60
2022-12-04T18:38:27.204Z,12.93
2022-12-04T18:40:54.776Z,12.10
2022-12-04T18:43:22.306Z,12.90
2022-12-04T18:45:49.931Z,12.53
2022-12-04T18:48:17.429Z,11.90
2022-12-04T18:50:44.955Z,13.80
2022-12-04T18:53:12.530Z,11.70
2022-12-04T18:55:40.067Z,11.67
2022-12-04T18:58:07.588Z,11.13
2022-12-04T19:00:36.672Z,10.70
2022-12-04T19:03:04.174Z,11.17
2022-12-04T19:05:31.699Z,11.33
2022-12-04T19:07:59.690Z,11.43
2022-12-04T19:10:27.539Z,10.27
2022-12-04T19:12:55.447Z,11.47
2022-12-04T19:15:24.240Z,11.33
2022-12-04T19:17:51.943Z,10.67
2022-12-04T19:20:19.468Z,9.77
2022-12-04T19:22:47.042Z,13.65
2022-12-04T19:25:14.566Z,10.00
2022-12-04T19:27:42.092Z,9.80
2022-12-04T19:30:09.793Z,11.63
2022-12-04T19:32:37.319Z,10.93
2022-12-04T19:35:05.660Z,9.67
2022-12-04T19:37:35.846Z,10.03
2022-12-04T19:40:00.753Z,11.65
2022-12-04T19:42:28.275Z,12.27
2022-12-04T19:44:56.607Z,12.20
2022-12-04T19:47:24.171Z,10.67
2022-12-04T19:49:51.665Z,10.33
2022-12-04T19:52:20.604Z,9.60
2022-12-04T19:54:48.125Z,9.20
2022-12-04T19:57:16.425Z,10.47
2022-12-04T19:59:46.500Z,9.50
2022-12-04T20:02:11.532Z,9.17
2022-12-04T20:04:39.034Z,8.70
2022-12-04T20:07:06.595Z,9.80
2022-12-04T20:09:34.130Z,9.83
2022-12-04T20:12:01.655Z,9.97
2022-12-04T20:14:29.989Z,9.47
2022-12-04T20:16:57.598Z,12.37
2022-12-04T20:19:25.057Z,13.32
2022-12-04T20:21:57.656Z,13.18
2022-12-04T20:24:20.155Z,10.77
2022-12-04T20:26:48.457Z,10.77
2022-12-04T20:29:16.304Z,10.00
2022-12-04T20:31:44.591Z,9.70
2022-12-04T20:34:12.891Z,10.10
2022-12-04T20:36:40.467Z,9.27
2022-12-04T20:39:07.994Z,8.97
2022-12-04T20:41:35.518Z,9.03
2022-12-04T20:44:03.121Z,8.63
2022-12-04T20:46:33.367Z,9.53
2022-12-04T20:49:01.616Z,9.43
2022-12-04T20:51:30.323Z,9.23
2022-12-04T20:54:00.768Z,9.93
2022-12-04T20:56:28.291Z,9.47
2022-12-04T20:58:58.585Z,9.90
2022-12-04T21:01:27.005Z,9.50
2022-12-04T21:03:54.399Z,10.30
2022-12-04T21:06:29.607Z,9.40
2022-12-04T21:08:58.155Z,13.20
2022-12-04T21:11:25.688Z,11.17
2022-12-04T21:14:11.642Z,9.97
2022-12-04T21:16:39.172Z,9.60
2022-12-04T21:19:06.698Z,8.50
2022-12-04T21:21:35.050Z,8.90
2022-12-04T21:24:02.601Z,9.43
2022-12-04T21:26:30.138Z,9.43
2022-12-04T21:29:00.418Z,8.53
2022-12-04T21:31:28.812Z,8.57
2022-12-04T21:33:57.002Z,9.47
2022-12-04T21:36:24.567Z,8.70
2022-12-04T21:38:52.100Z,8.73
2022-12-04T21:41:38.421Z,8.40
2022-12-04T21:44:05.947Z,8.40
2022-12-04T21:46:34.357Z,9.17
2022-12-04T21:49:02.576Z,8.37
2022-12-04T21:51:55.695Z,8.53
2022-12-04T21:53:57.631Z,8.57
2022-12-04T21:56:25.203Z,8.67
2022-12-04T21:58:52.728Z,8.60
2022-12-04T22:01:20.275Z,8.20
2022-12-04T22:03:47.816Z,9.10
2022-12-04T22:06:15.351Z,9.17
2022-12-04T22:08:42.885Z,8.80
2022-12-04T22:11:11.593Z,8.17
2022-12-04T22:13:39.123Z,9.20
2022-12-04T22:16:07.481Z,7.97
2022-12-04T22:18:34.990Z,7.53
2022-12-04T22:21:05.513Z,8.50
2022-12-04T22:23:33.039Z,8.23
2022-12-04T22:26:10.382Z,8.53
2022-12-04T22:28:37.990Z,8.53
2022-12-04T22:31:05.534Z,9.07
2022-12-04T22:33:33.039Z,8.00
2022-12-04T22:36:09.308Z,8.10
2022-12-04T22:38:52.644Z,11.02
2022-12-04T22:41:05.192Z,8.57
2022-12-04T22:43:39.256Z,9.47
2022-12-04T22:46:00.241Z,11.15
2022-12-04T22:48:30.463Z,8.83
2022-12-04T22:51:00.961Z,8.47
2022-12-04T22:53:28.484Z,8.50
2022-12-04T22:55:56.068Z,8.20
2022-12-04T22:58:23.593Z,8.00
2022-12-04T23:00:51.119Z,10.68
2022-12-04T23:03:19.504Z,9.27
2022-12-04T23:05:46.985Z,8.83
2022-12-04T23:08:14.617Z,11.25
2022-12-04T23:10:42.105Z,9.03
2022-12-04T23:13:09.628Z,8.37
2022-12-04T23:15:40.850Z,8.67
2022-12-04T23:18:08.882Z,8.03
2022-12-04T23:20:36.426Z,10.70
2022-12-04T23:23:03.972Z,7.93
2022-12-04T23:25:31.535Z,8.70
2022-12-04T23:27:59.082Z,8.30
2022-12-04T23:30:30.526Z,7.43
2022-12-04T23:32:55.874Z,7.87
2022-12-04T23:35:23.397Z,7.03
2022-12-04T23:37:51.684Z,7.20
2022-12-04T23:40:19.254Z,8.13
2022-12-04T23:42:46.790Z,7.83
2022-12-04T23:45:15.072Z,8.00
2022-12-04T23:47:43.405Z,7.27
2022-12-04T23:50:10.988Z,8.07
2022-12-04T23:52:38.504Z,8.57
2022-12-04T23:55:06.442Z,7.77
2022-12-04T23:57:33.977Z,7.73
